Time;durP1;ratioP1;P1;durP2;ratioP2;P2;SDS_P1;SDS_P2;PMS_P1;PMS_P2;Temp;Humidity;BMP_temperature;BMP_pressure;BME280_temperature;BME280_humidity;BME280_pressure;Samples;Min_cycle;Max_cycle;Signal;HPM_P1;HPM_P2
2023/06/22 00:01:16;;;;;;;3.17;2.97;;;;;;;-146.25;100.00;57403.91;5050195;28;20232;-87
2023/06/22 00:03:43;;;;;;;3.10;2.90;;;;;;;-146.25;100.00;57403.91;5050528;28;20288;-86
2023/06/22 00:06:09;;;;;;;2.92;2.72;;;;;;;-146.25;100.00;57403.91;5050664;28;20202;-84
2023/06/22 00:08:36;;;;;;;3.10;2.90;;;;;;;-146.25;100.00;57403.91;5050456;28;20208;-85
2023/06/22 00:11:03;;;;;;;2.70;2.60;;;;;;;-146.25;100.00;57403.91;5050546;28;20313;-84
2023/06/22 00:13:30;;;;;;;2.97;2.78;;;;;;;-146.25;100.00;57403.91;5050717;28;20282;-86
2023/06/22 00:15:57;;;;;;;3.13;2.85;;;;;;;-146.25;100.00;57403.91;5050574;28;20267;-85
2023/06/22 00:18:27;;;;;;;3.05;2.60;;;;;;;-146.25;100.00;57403.91;5050203;28;20207;-85
2023/06/22 00:20:58;;;;;;;2.28;2.17;;;;;;;-146.25;100.00;57403.91;5050031;28;20759;-85
2023/06/22 00:23:25;;;;;;;5.07;3.03;;;;;;;-146.25;100.00;57403.91;5050136;28;20202;-85
2023/06/22 00:25:52;;;;;;;2.63;2.47;;;;;;;-146.25;100.00;57403.91;5050070;28;20196;-85
2023/06/22 00:28:20;;;;;;;7.32;3.25;;;;;;;-146.25;100.00;57403.91;5050489;28;20204;-85
2023/06/22 00:30:48;;;;;;;2.53;2.42;;;;;;;-146.25;100.00;57403.91;5050285;28;20196;-85
2023/06/22 00:33:15;;;;;;;3.17;2.78;;;;;;;-146.25;100.00;57403.91;5050570;28;20620;-84
2023/06/22 00:35:44;;;;;;;3.45;3.10;;;;;;;-146.25;100.00;57403.91;5050974;28;20243;-85
2023/06/22 00:38:11;;;;;;;2.72;2.63;;;;;;;-146.25;100.00;57403.91;5051007;28;20548;-84
2023/06/22 00:40:39;;;;;;;2.85;2.65;;;;;;;-146.25;100.00;57403.91;5050630;28;20227;-85
2023/06/22 00:43:06;;;;;;;2.83;2.70;;;;;;;-146.25;100.00;57403.91;5067375;28;20210;-84
2023/06/22 00:45:33;;;;;;;4.32;3.70;;;;;;;-146.25;100.00;57403.91;5073946;28;20285;-84
2023/06/22 00:48:00;;;;;;;3.88;2.90;;;;;;;-146.25;100.00;57403.91;5054267;28;20210;-84
2023/06/22 00:50:33;;;;;;;2.97;2.80;;;;;;;-146.25;100.00;57403.91;5050647;28;20305;-85
2023/06/22 00:53:07;;;;;;;3.53;3.13;;;;;;;-146.25;100.00;57403.91;5050603;28;20213;-85
2023/06/22 00:55:37;;;;;;;3.53;3.17;;;;;;;-146.25;100.00;57403.91;5050000;28;20236;-86
2023/06/22 00:58:05;;;;;;;3.15;2.83;;;;;;;-146.25;100.00;57403.91;5049735;28;20659;-84
2023/06/22 01:00:32;;;;;;;4.25;3.20;;;;;;;-146.25;100.00;57403.91;5049418;28;20309;-84
2023/06/22 01:02:59;;;;;;;3.88;3.47;;;;;;;-146.25;100.00;57403.91;5049767;28;20209;-86
2023/06/22 01:05:30;;;;;;;3.75;3.47;;;;;;;-146.25;100.00;57403.91;5049514;28;20207;-86
2023/06/22 01:08:07;;;;;;;3.35;3.05;;;;;;;-146.25;100.00;57403.91;5050009;28;20197;-84
2023/06/22 01:10:41;;;;;;;5.88;3.08;;;;;;;-146.25;100.00;57403.91;5050042;28;20208;-84
2023/06/22 01:13:15;;;;;;;3.08;2.72;;;;;;;-146.25;100.00;57403.91;5049730;28;20187;-86
2023/06/22 01:15:49;;;;;;;3.17;2.83;;;;;;;-146.25;100.00;57403.91;5049655;28;20194;-85
2023/06/22 01:18:19;;;;;;;4.78;2.97;;;;;;;-146.25;100.00;57403.91;5047930;28;20720;-85
2023/06/22 01:20:47;;;;;;;2.83;2.63;;;;;;;-146.25;100.00;57403.91;5049272;28;20230;-84
2023/06/22 01:23:27;;;;;;;3.50;3.20;;;;;;;-146.25;100.00;57403.91;5049257;28;20209;-85
2023/06/22 01:26:03;;;;;;;2.65;2.53;;;;;;;-146.25;100.00;57403.91;5049018;28;20200;-85
2023/06/22 01:28:46;;;;;;;3.85;3.30;;;;;;;-146.25;100.00;57403.91;5049283;28;20667;-84
2023/06/22 01:31:16;;;;;;;3.40;2.97;;;;;;;-146.25;100.00;57403.91;5049389;28;20196;-86
2023/06/22 01:33:46;;;;;;;3.20;2.90;;;;;;;-146.25;100.00;57403.91;5049156;28;20222;-84
2023/06/22 01:36:14;;;;;;;3.17;2.95;;;;;;;-146.25;100.00;57403.91;5049026;28;20660;-85
2023/06/22 01:38:43;;;;;;;3.95;3.55;;;;;;;-146.25;100.00;57403.91;5048771;28;20682;-84
2023/06/22 01:41:10;;;;;;;3.53;3.30;;;;;;;-146.25;100.00;57403.91;5049267;28;20316;-85
2023/06/22 01:43:38;;;;;;;3.20;2.95;;;;;;;-146.25;100.00;57403.91;5048903;28;20210;-85
2023/06/22 01:46:06;;;;;;;3.03;2.83;;;;;;;-146.25;100.00;57403.91;5048861;28;20263;-85
2023/06/22 01:48:34;;;;;;;3.38;3.17;;;;;;;-146.25;100.00;57403.91;5049006;28;20242;-84
2023/06/22 01:51:01;;;;;;;3.75;3.45;;;;;;;-146.25;100.00;57403.91;5048600;28;20245;-86
2023/06/22 01:53:28;;;;;;;2.85;2.70;;;;;;;-146.25;100.00;57403.91;5048426;28;20207;-85
2023/06/22 01:55:55;;;;;;;2.85;2.65;;;;;;;-146.25;100.00;57403.91;5048884;28;20199;-85
2023/06/22 01:58:26;;;;;;;2.83;2.63;;;;;;;-146.25;100.00;57403.91;5048638;28;20234;-84
2023/06/22 02:00:59;;;;;;;2.72;2.47;;;;;;;-146.25;100.00;57403.91;5048945;28;20228;-85
2023/06/22 02:03:32;;;;;;;4.05;3.13;;;;;;;-146.25;100.00;57403.91;5048801;28;20201;-84
2023/06/22 02:06:07;;;;;;;3.47;3.28;;;;;;;-146.25;100.00;57403.91;5048969;28;20278;-85
2023/06/22 02:08:42;;;;;;;5.53;3.28;;;;;;;-146.25;100.00;57403.91;5048695;28;20238;-85
2023/06/22 02:11:11;;;;;;;3.78;3.47;;;;;;;-146.25;100.00;57403.91;5048806;28;20222;-84
2023/06/22 02:13:42;;;;;;;3.28;2.97;;;;;;;-146.25;100.00;57403.91;5048819;28;20209;-85
2023/06/22 02:16:10;;;;;;;3.45;2.85;;;;;;;-146.25;100.00;57403.91;5048795;28;20211;-85
2023/06/22 02:18:40;;;;;;;3.67;3.40;;;;;;;-146.25;100.00;57403.91;5048996;28;20262;-85
2023/06/22 02:21:07;;;;;;;6.05;3.08;;;;;;;-146.25;100.00;57403.91;5048455;28;20232;-85
2023/06/22 02:23:35;;;;;;;2.97;2.78;;;;;;;-146.25;100.00;57403.91;5048440;28;20192;-85
2023/06/22 02:26:02;;;;;;;3.60;3.30;;;;;;;-146.25;100.00;57403.91;5051443;28;20198;-85
2023/06/22 02:28:30;;;;;;;3.47;3.13;;;;;;;-146.25;100.00;57403.91;5052789;28;20285;-86
2023/06/22 02:30:57;;;;;;;3.08;2.88;;;;;;;-146.25;100.00;57403.91;5052851;28;20232;-85
2023/06/22 02:33:23;;;;;;;5.10;3.10;;;;;;;-146.25;100.00;57403.91;5052156;28;20286;-86
2023/06/22 02:35:52;;;;;;;2.60;2.50;;;;;;;-146.25;100.00;57403.91;5052142;28;20292;-86
2023/06/22 02:38:19;;;;;;;6.28;4.30;;;;;;;-146.25;100.00;57403.91;5052208;28;20739;-86
2023/06/22 02:40:46;;;;;;;3.25;3.15;;;;;;;-146.25;100.00;57403.91;5053171;28;20207;-85
2023/06/22 02:43:14;;;;;;;3.63;3.33;;;;;;;-146.25;100.00;57403.91;5052789;28;20272;-85
2023/06/22 02:45:41;;;;;;;3.53;3.05;;;;;;;-146.25;100.00;57403.91;5052081;28;20207;-84
2023/06/22 02:48:08;;;;;;;3.60;3.30;;;;;;;-146.25;100.00;57403.91;5052291;28;20199;-85
2023/06/22 02:50:35;;;;;;;3.22;3.08;;;;;;;-146.25;100.00;57403.91;5052123;28;20698;-84
2023/06/22 02:53:03;;;;;;;4.07;3.05;;;;;;;-146.25;100.00;57403.91;5052024;28;20305;-85
2023/06/22 02:55:30;;;;;;;3.65;3.42;;;;;;;-146.25;100.00;57403.91;5052145;28;20220;-85
2023/06/22 02:57:59;;;;;;;5.45;3.22;;;;;;;-146.25;100.00;57403.91;5052298;28;20193;-85
2023/06/22 03:00:30;;;;;;;3.40;3.20;;;;;;;-146.25;100.00;57403.91;5051989;28;20198;-86
2023/06/22 03:02:58;;;;;;;4.00;3.45;;;;;;;-146.25;100.00;57403.91;5052109;28;20628;-85
2023/06/22 03:05:25;;;;;;;3.40;3.10;;;;;;;-146.25;100.00;57403.91;5052417;28;20225;-85
2023/06/22 03:07:53;;;;;;;4.43;3.63;;;;;;;-146.25;100.00;57403.91;5052754;28;20259;-83
2023/06/22 03:10:21;;;;;;;3.55;3.35;;;;;;;-146.25;100.00;57403.91;5052368;28;20213;-85
2023/06/22 03:12:48;;;;;;;5.13;3.25;;;;;;;-146.25;100.00;57403.91;5051852;28;20241;-85
2023/06/22 03:15:17;;;;;;;4.20;3.65;;;;;;;-146.25;100.00;57403.91;5051902;28;20199;-85
2023/06/22 03:17:44;;;;;;;5.15;3.70;;;;;;;-146.25;100.00;57403.91;5051632;28;20287;-85
2023/06/22 03:20:12;;;;;;;3.95;3.58;;;;;;;-146.25;100.00;57403.91;5052256;28;20217;-84
2023/06/22 03:22:40;;;;;;;3.42;3.13;;;;;;;-146.25;100.00;57403.91;5052018;28;20765;-85
2023/06/22 03:25:13;;;;;;;24.75;10.90;;;;;;;-146.25;100.00;57403.91;5051574;28;20358;-86
2023/06/22 03:27:42;;;;;;;6.57;3.95;;;;;;;-146.25;100.00;57403.91;5051820;28;20659;-86
2023/06/22 03:30:39;;;;;;;3.17;2.88;;;;;;;-146.25;100.00;57403.91;5052180;28;20305;-86
2023/06/22 03:33:32;;;;;;;3.47;3.28;;;;;;;-146.25;100.00;57403.91;5051670;28;20199;-87
2023/06/22 03:36:18;;;;;;;4.43;3.28;;;;;;;-146.25;100.00;57403.91;5051434;28;20568;-86
2023/06/22 03:38:57;;;;;;;3.65;3.45;;;;;;;-146.25;100.00;57403.91;5051843;28;20210;-86
2023/06/22 03:41:28;;;;;;;6.53;3.47;;;;;;;-146.25;100.00;57403.91;5051610;28;20219;-86
2023/06/22 03:44:12;;;;;;;4.25;3.85;;;;;;;-146.25;100.00;57403.91;5051609;28;20203;-86
2023/06/22 03:46:39;;;;;;;4.60;4.20;;;;;;;-146.25;100.00;57403.91;5051520;28;20226;-85
2023/06/22 03:49:20;;;;;;;3.70;3.45;;;;;;;-146.25;100.00;57403.91;5051935;28;20203;-86
2023/06/22 03:51:47;;;;;;;4.47;3.95;;;;;;;-146.25;100.00;57403.91;5051951;28;20195;-86
2023/06/22 03:54:19;;;;;;;3.92;3.72;;;;;;;-146.25;100.00;57403.91;5051985;28;20289;-85
2023/06/22 03:56:46;;;;;;;4.13;3.63;;;;;;;-146.25;100.00;57403.91;5051657;28;20207;-86
2023/06/22 03:59:14;;;;;;;5.25;4.75;;;;;;;-146.25;100.00;57403.91;5051191;28;20202;-85
2023/06/22 04:01:42;;;;;;;3.67;3.40;;;;;;;-146.25;100.00;57403.91;5051052;28;20239;-87
2023/06/22 04:04:10;;;;;;;3.95;3.67;;;;;;;-146.25;100.00;57403.91;5051061;28;20196;-86
2023/06/22 04:06:43;;;;;;;4.40;3.47;;;;;;;-146.25;100.00;57403.91;5051140;28;20230;-86
2023/06/22 04:09:11;;;;;;;4.55;4.15;;;;;;;-146.25;100.00;57403.91;5050743;28;20595;-86
2023/06/22 04:11:38;;;;;;;3.92;3.65;;;;;;;-146.25;100.00;57403.91;5050815;28;20682;-87
2023/06/22 04:14:05;;;;;;;4.55;4.13;;;;;;;-146.25;100.00;57403.91;5051016;28;20610;-87
2023/06/22 04:16:34;;;;;;;4.57;4.18;;;;;;;-146.25;100.00;57403.91;5050631;28;20204;-86
2023/06/22 04:19:01;;;;;;;7.88;6.55;;;;;;;-146.25;100.00;57403.91;5051167;28;20280;-87
2023/06/22 04:21:28;;;;;;;4.13;3.83;;;;;;;-146.25;100.00;57403.91;5050864;28;20294;-86
2023/06/22 04:23:55;;;;;;;4.60;4.20;;;;;;;-146.25;100.00;57403.91;5050749;28;20203;-85
2023/06/22 04:26:36;;;;;;;5.65;5.15;;;;;;;-146.25;100.00;57403.91;5050907;28;20204;-84
2023/06/22 04:29:48;;;;;;;4.88;4.47;;;;;;;-146.25;100.00;57403.91;5051222;28;20191;-85
2023/06/22 04:32:35;;;;;;;4.75;4.30;;;;;;;-146.25;100.00;57403.91;5051460;28;20271;-85
2023/06/22 04:36:01;;;;;;;5.15;4.75;;;;;;;-146.25;100.00;57403.91;5050619;28;20211;-86
2023/06/22 04:39:27;;;;;;;5.90;5.40;;;;;;;-146.25;100.00;57403.91;5056201;28;20653;-85
2023/06/22 04:42:55;;;;;;;5.05;4.70;;;;;;;-146.25;100.00;57403.91;5053301;28;20262;-85
2023/06/22 04:46:20;;;;;;;5.97;5.40;;;;;;;-146.25;100.00;57403.91;5050894;28;20226;-84
2023/06/22 04:49:48;;;;;;;6.05;4.68;;;;;;;-146.25;100.00;57403.91;5049467;28;20206;-84
2023/06/22 04:53:13;;;;;;;5.97;5.43;;;;;;;-146.25;100.00;57403.91;5050124;28;20195;-86
2023/06/22 04:56:40;;;;;;;5.85;5.35;;;;;;;-146.25;100.00;57403.91;5050025;28;20583;-85
2023/06/22 05:00:13;;;;;;;6.40;5.55;;;;;;;-146.25;100.00;57403.91;5050343;28;20249;-85
2023/06/22 05:03:49;;;;;;;5.65;5.18;;;;;;;-146.25;100.00;57403.91;5049817;28;20287;-86
2023/06/22 05:07:18;;;;;;;8.25;5.47;;;;;;;-146.25;100.00;57403.91;5049806;28;20514;-84
2023/06/22 05:10:44;;;;;;;6.30;5.43;;;;;;;-146.25;100.00;57403.91;5049891;28;20230;-85
2023/06/22 05:14:09;;;;;;;6.18;5.57;;;;;;;-146.25;100.00;57403.91;5050616;28;20213;-86
2023/06/22 05:17:36;;;;;;;9.88;6.43;;;;;;;-146.25;100.00;57403.91;5049590;28;20594;-85
2023/06/22 05:21:04;;;;;;;7.47;5.20;;;;;;;-146.25;100.00;57403.91;5050746;28;20202;-87
2023/06/22 05:24:30;;;;;;;6.07;5.57;;;;;;;-146.25;100.00;57403.91;5049773;28;20298;-85
2023/06/22 05:27:58;;;;;;;7.25;5.80;;;;;;;-146.25;100.00;57403.91;5050049;28;20256;-86
2023/06/22 05:31:24;;;;;;;6.13;5.70;;;;;;;-146.25;100.00;57403.91;5049719;28;20678;-86
2023/06/22 05:34:54;;;;;;;5.72;5.22;;;;;;;-146.25;100.00;57403.91;5050214;28;20195;-87
2023/06/22 05:38:48;;;;;;;7.20;5.43;;;;;;;-146.25;100.00;57403.91;5050089;28;20214;-86
2023/06/22 05:42:13;;;;;;;6.55;5.82;;;;;;;-146.25;100.00;57403.91;5049571;28;20246;-86
2023/06/22 05:45:39;;;;;;;6.43;5.93;;;;;;;-146.25;100.00;57403.91;5050090;28;20294;-85
2023/06/22 05:49:11;;;;;;;4.95;4.65;;;;;;;-146.25;100.00;57403.91;5049207;28;20290;-86
2023/06/22 05:52:39;;;;;;;6.28;5.65;;;;;;;-146.25;100.00;57403.91;5049727;28;20214;-84
2023/06/22 05:56:06;;;;;;;5.63;5.22;;;;;;;-146.25;100.00;57403.91;5051825;28;20679;-86
2023/06/22 05:59:31;;;;;;;6.05;5.60;;;;;;;-146.25;100.00;57403.91;5052160;28;20204;-87
2023/06/22 06:03:02;;;;;;;5.72;5.07;;;;;;;-146.25;100.00;57403.91;5055771;28;20228;-86
2023/06/22 06:06:29;;;;;;;6.05;5.53;;;;;;;-146.25;100.00;57403.91;5055678;28;20195;-85
2023/06/22 06:09:54;;;;;;;6.47;5.97;;;;;;;-146.25;100.00;57403.91;5053911;28;20198;-86
2023/06/22 06:13:21;;;;;;;5.97;5.25;;;;;;;-146.25;100.00;57403.91;5054382;28;20260;-85
2023/06/22 06:16:47;;;;;;;5.25;4.85;;;;;;;-146.25;100.00;57403.91;5055280;28;20739;-85
2023/06/22 06:20:13;;;;;;;5.95;5.50;;;;;;;-146.25;100.00;57403.91;5055286;28;20203;-85
2023/06/22 06:23:39;;;;;;;5.95;5.55;;;;;;;-146.25;100.00;57403.91;5055050;28;20230;-88
2023/06/22 06:27:05;;;;;;;5.80;5.32;;;;;;;-146.25;100.00;57403.91;5057419;28;20211;-85
2023/06/22 06:30:33;;;;;;;6.53;5.93;;;;;;;-146.25;100.00;57403.91;5054188;28;20288;-86
2023/06/22 06:34:00;;;;;;;5.43;5.07;;;;;;;-146.25;100.00;57403.91;5054498;28;20252;-85
2023/06/22 06:37:25;;;;;;;5.65;5.25;;;;;;;-146.25;100.00;57403.91;5053246;28;20434;-85
2023/06/22 06:40:51;;;;;;;5.85;5.15;;;;;;;-146.25;100.00;57403.91;5052997;28;20199;-85
2023/06/22 06:44:19;;;;;;;6.13;5.55;;;;;;;-146.25;100.00;57403.91;5052751;28;20237;-85
2023/06/22 06:47:47;;;;;;;5.47;5.07;;;;;;;-146.25;100.00;57403.91;5052883;28;20218;-86
2023/06/22 06:51:12;;;;;;;5.72;5.32;;;;;;;-146.25;100.00;57403.91;5052568;28;20239;-85
2023/06/22 06:54:38;;;;;;;4.88;4.57;;;;;;;-146.25;100.00;57403.91;5052578;28;20230;-86
2023/06/22 06:58:08;;;;;;;5.35;4.93;;;;;;;-146.25;100.00;57403.91;5052545;28;20299;-87
2023/06/22 07:01:35;;;;;;;5.82;5.30;;;;;;;-146.25;100.00;57403.91;5052232;28;20289;-86
2023/06/22 07:05:06;;;;;;;5.07;4.78;;;;;;;-146.25;100.00;57403.91;5052088;28;20231;-87
2023/06/22 07:08:31;;;;;;;5.45;4.65;;;;;;;-146.25;100.00;57403.91;5052169;28;20218;-86
2023/06/22 07:11:57;;;;;;;6.03;4.95;;;;;;;-146.25;100.00;57403.91;5052492;28;20195;-87
2023/06/22 07:15:23;;;;;;;9.07;5.30;;;;;;;-146.25;100.00;57403.91;5052260;28;20282;-87
2023/06/22 07:18:49;;;;;;;5.88;5.30;;;;;;;-146.25;100.00;57403.91;5052047;28;20263;-85
2023/06/22 07:22:15;;;;;;;5.40;4.88;;;;;;;-146.25;100.00;57403.91;5053086;28;20203;-86
2023/06/22 07:25:17;;;;;;;5.05;4.75;;;;;;;-146.25;100.00;57403.91;5052197;28;20230;-86
2023/06/22 07:28:45;;;;;;;5.90;5.40;;;;;;;-146.25;100.00;57403.91;5052131;28;20709;-85
2023/06/22 07:32:11;;;;;;;6.32;5.38;;;;;;;-146.25;100.00;57403.91;5053068;28;20527;-86
2023/06/22 07:35:36;;;;;;;5.55;5.15;;;;;;;-146.25;100.00;57403.91;5053043;28;20206;-85
2023/06/22 07:39:04;;;;;;;9.80;5.70;;;;;;;-146.25;100.00;57403.91;5052795;28;20285;-85
2023/06/22 07:42:32;;;;;;;5.13;4.82;;;;;;;-146.25;100.00;57403.91;5052531;28;20195;-86
2023/06/22 07:45:58;;;;;;;5.03;4.63;;;;;;;-146.25;100.00;57403.91;5052135;28;20250;-87
2023/06/22 07:49:23;;;;;;;5.68;5.38;;;;;;;-146.25;100.00;57403.91;5051819;28;20195;-87
2023/06/22 07:52:49;;;;;;;5.95;5.45;;;;;;;-146.25;100.00;57403.91;5053455;28;20253;-86
2023/06/22 07:56:18;;;;;;;5.78;5.13;;;;;;;-146.25;100.00;57403.91;5051884;28;20588;-86
2023/06/22 07:59:44;;;;;;;5.47;5.15;;;;;;;-146.25;100.00;57403.91;5051758;28;20190;-85
2023/06/22 08:03:10;;;;;;;5.60;5.20;;;;;;;-146.25;100.00;57403.91;5050815;28;20273;-86
2023/06/22 08:06:35;;;;;;;5.68;5.22;;;;;;;-146.25;100.00;57403.91;5051142;28;20260;-84
2023/06/22 08:10:02;;;;;;;6.25;5.65;;;;;;;-146.25;100.00;57403.91;5052108;28;20203;-85
2023/06/22 08:13:29;;;;;;;6.22;5.70;;;;;;;-146.25;100.00;57403.91;5051378;28;20380;-86
2023/06/22 08:16:55;;;;;;;5.30;4.93;;;;;;;-146.25;100.00;57403.91;5051824;28;20207;-88
2023/06/22 08:20:20;;;;;;;5.75;5.22;;;;;;;-146.25;100.00;57403.91;5052141;28;20210;-85
2023/06/22 08:23:56;;;;;;;6.03;5.53;;;;;;;-146.25;100.00;57403.91;5051256;28;20288;-84
2023/06/22 08:27:23;;;;;;;9.88;5.18;;;;;;;-146.25;100.00;57403.91;5050731;28;20745;-86
2023/06/22 08:30:50;;;;;;;7.40;6.13;;;;;;;-146.25;100.00;57403.91;5051487;28;20210;-86
2023/06/22 08:34:17;;;;;;;4.97;4.55;;;;;;;-146.25;100.00;57403.91;5053201;28;20724;-86
2023/06/22 08:37:43;;;;;;;6.05;5.55;;;;;;;-146.25;100.00;57403.91;5061482;28;20273;-86
2023/06/22 08:41:09;;;;;;;6.10;5.63;;;;;;;-146.25;100.00;57403.91;5066001;28;20207;-85
2023/06/22 08:44:34;;;;;;;5.93;5.43;;;;;;;-146.25;100.00;57403.91;5051985;28;20210;-85
2023/06/22 08:48:01;;;;;;;6.25;5.82;;;;;;;-146.25;100.00;57403.91;5051308;28;20326;-86
2023/06/22 08:51:27;;;;;;;7.97;5.82;;;;;;;-146.25;100.00;57403.91;5050492;28;20237;-85
2023/06/22 08:54:53;;;;;;;6.15;5.65;;;;;;;-146.25;100.00;57403.91;5050507;28;20253;-85
2023/06/22 08:58:20;;;;;;;5.95;5.55;;;;;;;-146.25;100.00;57403.91;5051155;28;20596;-86
2023/06/22 09:01:48;;;;;;;6.05;5.50;;;;;;;-146.25;100.00;57403.91;5050466;28;20206;-86
2023/06/22 09:05:16;;;;;;;4.93;4.63;;;;;;;-146.25;100.00;57403.91;5050331;28;20305;-86
2023/06/22 09:08:41;;;;;;;5.07;4.82;;;;;;;-146.25;100.00;57403.91;5050547;28;20549;-84
2023/06/22 09:12:07;;;;;;;5.18;4.85;;;;;;;-146.25;100.00;57403.91;5050696;28;20246;-85
2023/06/22 09:15:34;;;;;;;5.43;5.03;;;;;;;-146.25;100.00;57403.91;5049662;28;20636;-86
2023/06/22 09:18:59;;;;;;;5.03;4.65;;;;;;;-146.25;100.00;57403.91;5049623;28;20599;-85
2023/06/22 09:22:29;;;;;;;5.75;5.20;;;;;;;-146.25;100.00;57403.91;5049672;28;20699;-85
2023/06/22 09:25:54;;;;;;;4.25;3.95;;;;;;;-146.25;100.00;57403.91;5052687;28;20222;-85
2023/06/22 09:28:36;;;;;;;4.80;4.40;;;;;;;-146.25;100.00;57403.91;5056287;28;20207;-86
2023/06/22 09:31:06;;;;;;;4.45;4.05;;;;;;;-146.25;100.00;57403.91;5056062;28;20217;-86
2023/06/22 09:33:34;;;;;;;5.18;4.78;;;;;;;-146.25;100.00;57403.91;5057053;28;20202;-87
2023/06/22 09:36:01;;;;;;;5.10;4.70;;;;;;;-146.25;100.00;57403.91;5056941;28;20244;-85
2023/06/22 09:38:30;;;;;;;5.20;4.80;;;;;;;-146.25;100.00;57403.91;5056098;28;20676;-86
2023/06/22 09:40:59;;;;;;;5.55;5.05;;;;;;;-146.25;100.00;57403.91;5056072;28;20226;-87
2023/06/22 09:43:27;;;;;;;4.45;4.15;;;;;;;-146.25;100.00;57403.91;5055941;28;20241;-87
2023/06/22 09:45:56;;;;;;;4.60;4.35;;;;;;;-146.25;100.00;57403.91;5055729;28;20720;-86
2023/06/22 09:48:25;;;;;;;4.60;4.30;;;;;;;-146.25;100.00;57403.91;5055859;28;20320;-86
2023/06/22 09:50:52;;;;;;;7.05;4.85;;;;;;;-146.25;100.00;57403.91;5050264;28;20310;-86
2023/06/22 09:53:19;;;;;;;4.32;4.13;;;;;;;-146.25;100.00;57403.91;5049141;28;20274;-87
2023/06/22 09:55:48;;;;;;;4.75;4.35;;;;;;;-146.25;100.00;57403.91;5048881;28;20578;-87
2023/06/22 09:58:16;;;;;;;5.25;4.85;;;;;;;-146.25;100.00;57403.91;5048674;28;20207;-87
2023/06/22 10:00:44;;;;;;;5.10;4.32;;;;;;;-146.25;100.00;57403.91;5049149;28;20211;-86
2023/06/22 10:03:11;;;;;;;4.90;4.50;;;;;;;-146.25;100.00;57403.91;5049271;28;20263;-85
2023/06/22 10:05:38;;;;;;;4.88;4.57;;;;;;;-146.25;100.00;57403.91;5048565;28;20776;-85
2023/06/22 10:08:07;;;;;;;4.35;3.95;;;;;;;-146.25;100.00;57403.91;5049868;28;20206;-86
2023/06/22 10:10:34;;;;;;;4.20;3.72;;;;;;;-146.25;100.00;57403.91;5049215;28;20191;-86
2023/06/22 10:13:11;;;;;;;5.10;4.70;;;;;;;-146.25;100.00;57403.91;5049151;28;20214;-86
2023/06/22 10:15:39;;;;;;;5.75;4.32;;;;;;;-146.25;100.00;57403.91;5049135;28;20547;-85
2023/06/22 10:18:06;;;;;;;4.45;4.15;;;;;;;-146.25;100.00;57403.91;5048702;28;20285;-85
2023/06/22 10:20:33;;;;;;;4.65;4.25;;;;;;;-146.25;100.00;57403.91;5048583;28;20301;-87
2023/06/22 10:23:09;;;;;;;4.40;4.20;;;;;;;-146.25;100.00;57403.91;5048558;28;20664;-86
2023/06/22 10:25:36;;;;;;;4.55;4.20;;;;;;;-146.25;100.00;57403.91;5048773;28;20292;-86
2023/06/22 10:28:04;;;;;;;4.85;4.43;;;;;;;-146.25;100.00;57403.91;5048557;28;20647;-85
2023/06/22 10:30:32;;;;;;;5.35;4.88;;;;;;;-146.25;100.00;57403.91;5051927;28;20664;-87
2023/06/22 10:32:59;;;;;;;5.28;4.88;;;;;;;-146.25;100.00;57403.91;5050036;28;20195;-85
2023/06/22 10:35:26;;;;;;;6.38;4.97;;;;;;;-146.25;100.00;57403.91;5048605;28;20199;-86
2023/06/22 10:37:54;;;;;;;5.30;4.90;;;;;;;-146.25;100.00;57403.91;5048936;28;20246;-85
2023/06/22 10:40:21;;;;;;;5.90;5.38;;;;;;;-146.25;100.00;57403.91;5048824;28;20218;-85
2023/06/22 10:42:50;;;;;;;5.40;5.00;;;;;;;-146.25;100.00;57403.91;5048901;28;20260;-86
2023/06/22 10:45:18;;;;;;;5.60;5.20;;;;;;;-146.25;100.00;57403.91;5048365;28;20249;-86
2023/06/22 10:47:45;;;;;;;4.63;4.22;;;;;;;-146.25;100.00;57403.91;5051952;28;20195;-86
2023/06/22 10:50:13;;;;;;;5.68;5.28;;;;;;;-146.25;100.00;57403.91;5052196;28;20235;-87
2023/06/22 10:52:41;;;;;;;5.63;5.22;;;;;;;-146.25;100.00;57403.91;5052355;28;20199;-86
2023/06/22 10:55:09;;;;;;;4.32;4.03;;;;;;;-146.25;100.00;57403.91;5052215;28;20235;-86
2023/06/22 10:57:36;;;;;;;5.63;5.13;;;;;;;-146.25;100.00;57403.91;5051941;28;20195;-86
2023/06/22 11:00:06;;;;;;;4.75;4.45;;;;;;;-146.25;100.00;57403.91;5051793;28;20277;-86
2023/06/22 11:02:34;;;;;;;5.00;4.60;;;;;;;-146.25;100.00;57403.91;5051982;28;20767;-87
2023/06/22 11:05:01;;;;;;;5.75;5.32;;;;;;;-146.25;100.00;57403.91;5052135;28;20667;-86
2023/06/22 11:07:29;;;;;;;4.75;4.45;;;;;;;-146.25;100.00;57403.91;5051831;28;20270;-86
2023/06/22 11:09:56;;;;;;;5.32;4.93;;;;;;;-146.25;100.00;57403.91;5052034;28;20242;-86
2023/06/22 11:12:23;;;;;;;5.78;5.30;;;;;;;-146.25;100.00;57403.91;5051953;28;20219;-86
2023/06/22 11:14:52;;;;;;;5.72;5.20;;;;;;;-146.25;100.00;57403.91;5051915;28;20238;-85
2023/06/22 11:17:19;;;;;;;5.85;5.32;;;;;;;-146.25;100.00;57403.91;5051963;28;20237;-85
2023/06/22 11:19:48;;;;;;;5.95;5.45;;;;;;;-146.25;100.00;57403.91;5051850;28;20207;-87
2023/06/22 11:22:15;;;;;;;6.13;5.40;;;;;;;-146.25;100.00;57403.91;5052042;28;20602;-87
2023/06/22 11:24:42;;;;;;;5.25;4.82;;;;;;;-146.25;100.00;57403.91;5051677;28;20211;-85
2023/06/22 11:27:09;;;;;;;5.22;4.80;;;;;;;-146.25;100.00;57403.91;5051407;28;20302;-86
2023/06/22 11:29:36;;;;;;;5.85;5.32;;;;;;;-146.25;100.00;57403.91;5051481;28;20292;-86
2023/06/22 11:32:03;;;;;;;4.88;4.45;;;;;;;-146.25;100.00;57403.91;5051421;28;20204;-86
2023/06/22 11:34:31;;;;;;;4.78;4.38;;;;;;;-146.25;100.00;57403.91;5051590;28;20257;-86
2023/06/22 11:36:59;;;;;;;5.68;4.90;;;;;;;-146.25;100.00;57403.91;5051545;28;20202;-84
2023/06/22 11:39:26;;;;;;;5.28;4.88;;;;;;;-146.25;100.00;57403.91;5051512;28;20204;-85
2023/06/22 11:41:53;;;;;;;5.57;5.07;;;;;;;-146.25;100.00;57403.91;5051338;28;20196;-86
2023/06/22 11:44:20;;;;;;;4.85;4.55;;;;;;;-146.25;100.00;57403.91;5051166;28;20249;-86
2023/06/22 11:46:48;;;;;;;6.32;5.72;;;;;;;-146.25;100.00;57403.91;5051144;28;20227;-86
2023/06/22 11:49:15;;;;;;;9.00;5.22;;;;;;;-146.25;100.00;57403.91;5050957;28;20663;-86
2023/06/22 11:51:42;;;;;;;6.10;5.47;;;;;;;-146.25;100.00;57403.91;5051005;28;20235;-86
2023/06/22 11:54:10;;;;;;;6.47;5.32;;;;;;;-146.25;100.00;57403.91;5051307;28;20261;-86
2023/06/22 11:56:37;;;;;;;6.93;6.10;;;;;;;-146.25;100.00;57403.91;5050956;28;20238;-86
2023/06/22 11:59:05;;;;;;;6.53;5.68;;;;;;;-146.25;100.00;57403.91;5051601;28;20244;-84
2023/06/22 12:01:32;;;;;;;5.85;5.35;;;;;;;-146.25;100.00;57403.91;5051198;28;20200;-86
2023/06/22 12:04:00;;;;;;;6.00;5.57;;;;;;;-146.25;100.00;57403.91;5051713;28;20637;-85
2023/06/22 12:06:27;;;;;;;6.20;5.47;;;;;;;-146.25;100.00;57403.91;5051239;28;20566;-85
2023/06/22 12:08:54;;;;;;;8.43;5.55;;;;;;;-146.25;100.00;57403.91;5051791;28;20286;-86
2023/06/22 12:11:22;;;;;;;9.35;6.30;;;;;;;-146.25;100.00;57403.91;5050921;28;20230;-85
2023/06/22 12:13:49;;;;;;;10.77;6.22;;;;;;;-146.25;100.00;57403.91;5050736;28;20298;-86
2023/06/22 12:16:17;;;;;;;7.00;6.28;;;;;;;-146.25;100.00;57403.91;5051702;28;20199;-86
2023/06/22 12:18:43;;;;;;;6.25;5.70;;;;;;;-146.25;100.00;57403.91;5052036;28;20215;-87
2023/06/22 12:21:11;;;;;;;4.70;4.40;;;;;;;-146.25;100.00;57403.91;5051093;28;20203;-86
2023/06/22 12:23:39;;;;;;;6.28;5.65;;;;;;;-146.25;100.00;57403.91;5051407;28;20252;-86
2023/06/22 12:26:06;;;;;;;5.93;5.50;;;;;;;-146.25;100.00;57403.91;5051306;28;20227;-87
2023/06/22 12:28:35;;;;;;;7.93;5.22;;;;;;;-146.25;100.00;57403.91;5051067;28;20589;-86
2023/06/22 12:31:02;;;;;;;9.27;5.03;;;;;;;-146.25;100.00;57403.91;5051000;28;20195;-86
2023/06/22 12:33:30;;;;;;;6.68;4.97;;;;;;;-146.25;100.00;57403.91;5051136;28;20199;-86
2023/06/22 12:35:57;;;;;;;4.95;4.45;;;;;;;-146.25;100.00;57403.91;5061189;28;20192;-85
2023/06/22 12:38:25;;;;;;;5.88;4.97;;;;;;;-146.25;100.00;57403.91;5068527;28;20237;-84
2023/06/22 12:40:52;;;;;;;5.28;4.80;;;;;;;-146.25;100.00;57403.91;5060395;28;20244;-85